EHAM Airport Information

Runway Information
Runway 04 Length 6608 ft width 148 ft
Elevation 0 ft Threshold 0 ft Heading 41
Runway 22 Length 6608 ft Width 148 ft
Elevation 0 ft Threshold 0 ft Heading 221
Runway 06 Length 11483 ft width 148 ft
Elevation 0 ft Threshold 820 ft Heading 58
Runway 24 Length 11483 ft Width 148 ft
Elevation 0 ft Threshold 0 ft Heading 238
Runway 09 Length 11329 ft width 148 ft
Elevation 0 ft Threshold 294 ft Heading 87
Runway 27 Length 11329 ft Width 148 ft
Elevation 0 ft Threshold 0 ft Heading 267
Runway 18C Length 10826 ft width 148 ft
Elevation 0 ft Threshold 0 ft Heading 183
Runway 36C Length 10826 ft Width 148 ft
Elevation 0 ft Threshold 1476 ft Heading 3
Runway 18L Length 11155 ft width 148 ft
Elevation 0 ft Threshold 1887 ft Heading 183
Runway 36R Length 11155 ft Width 148 ft
Elevation 0 ft Threshold 0 ft Heading 3
Runway 18R Length 12467 ft width 198 ft
Elevation 0 ft Threshold 886 ft Heading 183
Runway 36L Length 12467 ft Width 198 ft
Elevation 0 ft Threshold 0 ft Heading 3
Airport Frequencies
Type APP Name APP/DEP Frequency 119.05 MHZ
Type ARR Name ARR Frequency 118.4 MHZ
Type ATIS Name ATIS Frequency 108.4 MHZ
Type CLD Name CLNC DEL Frequency 121.975 MHZ
Type GND Name GND Frequency 121.7 MHZ
Type TWR Name TWR Frequency 119.225 MHZ
Airport Navaids
Type VOR-DME Name Schiphol Frequency 108400 KHZ
Type VOR-DME Name Spijkerboor Frequency 113300 KHZ
Airport Weather Information & NOTAM
ADDS - METARS form results

(1903 UTC 22 June 2018)
 
METAR text: EHAM 221855Z 33012KT 300V360 9999 FEW024 BKN032 13/07 Q1028 NOSIG
Conditions at: EHAM (AMSTERDAM/SCHIPH, NL) observed 1855 UTC 22 June 2018
Temperature: 13.0°C (55°F)
Dewpoint: 7.0°C (45°F) [RH = 67%]
Pressure (altimeter): 30.35 inches Hg (1028.0 mb)
Winds: from the NNW (330 degrees) at 14 MPH (12 knots; 6.2 m/s)
Visibility: 6 or more miles (10+ km)
Ceiling: 3200 feet AGL
Clouds: few clouds at 2400 feet AGL
broken clouds at 3200 feet AGL
Weather: no significant weather observed at this time

METAR text: EHAM 221825Z 33013KT 290V030 9999 FEW024 BKN032 13/08 Q1028 NOSIG
Conditions at: EHAM (AMSTERDAM/SCHIPH, NL) observed 1825 UTC 22 June 2018
Temperature: 13.0°C (55°F)
Dewpoint: 8.0°C (46°F) [RH = 72%]
Pressure (altimeter): 30.35 inches Hg (1028.0 mb)
Winds: from the NNW (330 degrees) at 15 MPH (13 knots; 6.8 m/s)
Visibility: 6 or more miles (10+ km)
Ceiling: 3200 feet AGL
Clouds: few clouds at 2400 feet AGL
broken clouds at 3200 feet AGL
Weather: no significant weather observed at this time